GB-0079 weather

Manor Farm Airstrip
England, United Kingdom

Public forecast

Using degrees Celsius for public forecast. Weather courtesy of forecast.io.

Closest aviation weather report (METAR) to Manor Farm Airstrip

Closest report is MoD Boscombe Down Airport, 9.7 nm (18.1 km) SSW. Retrieved 2020/02/17 05:50 UTC (34 minutes ago):

EGDM 170550Z AUTO 25024G36KT 9999 RA FEW015/// SCT048/// 04/03 Q1006

Closest aviation forecast (TAF) to Manor Farm Airstrip

Forecast is more than 12 hours old.

Closest forecast is MoD Boscombe Down Airport, 9.7 nm (18.1 km) SSW. Retrieved 2010/11/20 06:11 UTC (9 years ago):

TAF EGDM 200503Z 2006/2024 08010KT 4000 BR SCT006 BKN010 TEMPO 2006/2009 3000 -RADZ BKN003 BECMG 2009/2012 7000 HZ BKN012 TEMPO 2012/2015 9999 NSW BKN015